Sigel, Pennsylvania
Current Conditions -  °F | °C
As of 5:53 AM on Wednesday 26 Nov 2014 (Local Time) from KDUJ Reporting Station
Clear Clear  
Wind Chill: 22°   Ceiling: Unl
Heat Index: 28°   Visibility: 9mi
Dew Point: 24°   Wind: 6mph
Humidity: 85%   Direction: 40°NE
Pressure: 30.06"   Gusts: NA
Location:  41.28°N, 79.11°W
Report Text: KDUJ 261053Z AUTO 04005KT 9SM CLR M02/M04 A3006 RMK AO2 SLP195 T10221044
Loading
Personal Weather Stations






























Interactive Weather Map New forecast layout! Learn more

10-Day Weather Forecast

Advertisements
Track Severe Weather on mobile